sensor_id;sensor_type;location;lat;lon;timestamp;pressure;altitude;pressure_sealevel;temperature;humidity
7930;BME280;4010;42.698;23.124;2023-07-22T00:01:10;118349.16;;;-140.64;73.70
7930;BME280;4010;42.698;23.124;2023-07-22T00:03:36;118349.16;;;-140.64;76.18
7930;BME280;4010;42.698;23.124;2023-07-22T00:06:04;118349.16;;;-140.64;76.65
7930;BME280;4010;42.698;23.124;2023-07-22T00:08:30;118349.16;;;-140.64;78.03
7930;BME280;4010;42.698;23.124;2023-07-22T00:10:58;118349.16;;;-140.64;78.85
7930;BME280;4010;42.698;23.124;2023-07-22T00:13:25;118349.16;;;-140.64;81.69
7930;BME280;4010;42.698;23.124;2023-07-22T00:15:52;118349.16;;;-140.64;82.92
7930;BME280;4010;42.698;23.124;2023-07-22T00:18:19;118349.16;;;-140.64;82.95
7930;BME280;4010;42.698;23.124;2023-07-22T00:20:45;118349.16;;;-140.64;83.78
7930;BME280;4010;42.698;23.124;2023-07-22T00:23:12;118349.16;;;-140.64;83.36
7930;BME280;4010;42.698;23.124;2023-07-22T00:25:40;118349.16;;;-140.64;84.07
7930;BME280;4010;42.698;23.124;2023-07-22T00:28:08;118349.16;;;-140.64;84.31
7930;BME280;4010;42.698;23.124;2023-07-22T00:30:35;118349.16;;;-140.64;85.39
7930;BME280;4010;42.698;23.124;2023-07-22T00:33:02;118349.16;;;-140.64;85.84
7930;BME280;4010;42.698;23.124;2023-07-22T00:35:29;118349.16;;;-140.64;86.72
7930;BME280;4010;42.698;23.124;2023-07-22T00:37:57;118349.16;;;-140.64;87.45
7930;BME280;4010;42.698;23.124;2023-07-22T00:40:24;118349.16;;;-140.64;88.58
7930;BME280;4010;42.698;23.124;2023-07-22T00:42:51;118349.16;;;-140.64;88.30
7930;BME280;4010;42.698;23.124;2023-07-22T00:45:19;118349.16;;;-140.64;88.86
7930;BME280;4010;42.698;23.124;2023-07-22T00:47:46;118349.16;;;-140.64;89.85
7930;BME280;4010;42.698;23.124;2023-07-22T00:50:13;118349.16;;;-140.64;90.17
7930;BME280;4010;42.698;23.124;2023-07-22T00:52:40;118349.16;;;-140.64;89.75
7930;BME280;4010;42.698;23.124;2023-07-22T00:55:08;118349.16;;;-140.64;89.49
7930;BME280;4010;42.698;23.124;2023-07-22T00:57:36;118349.16;;;-140.64;90.52
7930;BME280;4010;42.698;23.124;2023-07-22T01:00:03;118349.16;;;-140.64;91.17
7930;BME280;4010;42.698;23.124;2023-07-22T01:02:31;118349.16;;;-140.64;91.91
7930;BME280;4010;42.698;23.124;2023-07-22T01:05:00;118349.16;;;-140.64;92.38
7930;BME280;4010;42.698;23.124;2023-07-22T01:07:26;118349.16;;;-140.64;93.15
7930;BME280;4010;42.698;23.124;2023-07-22T01:09:56;118349.16;;;-140.64;93.82
7930;BME280;4010;42.698;23.124;2023-07-22T01:12:23;118349.16;;;-140.64;94.32
7930;BME280;4010;42.698;23.124;2023-07-22T01:14:50;118349.16;;;-140.64;94.54
7930;BME280;4010;42.698;23.124;2023-07-22T01:17:18;118349.16;;;-140.64;94.09
7930;BME280;4010;42.698;23.124;2023-07-22T01:19:48;118349.16;;;-140.64;93.53
7930;BME280;4010;42.698;23.124;2023-07-22T01:22:14;118349.16;;;-140.64;94.15
7930;BME280;4010;42.698;23.124;2023-07-22T01:24:44;118349.16;;;-140.64;94.82
7930;BME280;4010;42.698;23.124;2023-07-22T01:27:11;118349.16;;;-140.64;96.02
7930;BME280;4010;42.698;23.124;2023-07-22T01:29:39;118349.16;;;-140.64;96.93
7930;BME280;4010;42.698;23.124;2023-07-22T01:32:06;118349.16;;;-140.64;96.83
7930;BME280;4010;42.698;23.124;2023-07-22T01:34:34;118349.16;;;-140.64;97.32
7930;BME280;4010;42.698;23.124;2023-07-22T01:37:00;118349.16;;;-140.64;97.44
7930;BME280;4010;42.698;23.124;2023-07-22T01:39:27;118349.16;;;-140.64;97.68
7930;BME280;4010;42.698;23.124;2023-07-22T01:42:04;118349.16;;;-140.64;99.93
7930;BME280;4010;42.698;23.124;2023-07-22T01:44:30;118349.16;;;-140.64;100.00
7930;BME280;4010;42.698;23.124;2023-07-22T01:46:57;118349.16;;;-140.64;99.94
7930;BME280;4010;42.698;23.124;2023-07-22T01:49:24;118349.16;;;-140.64;100.00
7930;BME280;4010;42.698;23.124;2023-07-22T01:51:50;118349.16;;;-140.64;100.00
7930;BME280;4010;42.698;23.124;2023-07-22T01:54:18;118349.16;;;-140.64;100.00
7930;BME280;4010;42.698;23.124;2023-07-22T01:56:44;118349.16;;;-140.64;100.00
7930;BME280;4010;42.698;23.124;2023-07-22T01:59:12;118349.16;;;-140.64;100.00
7930;BME280;4010;42.698;23.124;2023-07-22T02:01:39;118349.16;;;-140.64;100.00
7930;BME280;4010;42.698;23.124;2023-07-22T02:04:06;118349.16;;;-140.64;100.00
7930;BME280;4010;42.698;23.124;2023-07-22T02:06:38;118349.16;;;-140.64;100.00
7930;BME280;4010;42.698;23.124;2023-07-22T02:09:04;118349.16;;;-140.64;100.00
7930;BME280;4010;42.698;23.124;2023-07-22T02:11:30;118349.16;;;-140.64;100.00
7930;BME280;4010;42.698;23.124;2023-07-22T02:13:58;118349.16;;;-140.64;100.00
7930;BME280;4010;42.698;23.124;2023-07-22T02:16:26;118349.16;;;-140.64;100.00
7930;BME280;4010;42.698;23.124;2023-07-22T02:18:53;118349.16;;;-140.64;100.00
7930;BME280;4010;42.698;23.124;2023-07-22T02:21:20;118349.16;;;-140.64;100.00
7930;BME280;4010;42.698;23.124;2023-07-22T02:23:46;118349.16;;;-140.64;100.00
7930;BME280;4010;42.698;23.124;2023-07-22T02:26:13;118349.16;;;-140.64;100.00
7930;BME280;4010;42.698;23.124;2023-07-22T02:28:40;118349.16;;;-140.64;100.00
7930;BME280;4010;42.698;23.124;2023-07-22T02:31:08;118349.16;;;-140.64;100.00
7930;BME280;4010;42.698;23.124;2023-07-22T02:33:37;118349.16;;;-140.64;100.00
7930;BME280;4010;42.698;23.124;2023-07-22T02:36:04;118349.16;;;-140.64;100.00
7930;BME280;4010;42.698;23.124;2023-07-22T02:38:31;118349.16;;;-140.64;100.00
7930;BME280;4010;42.698;23.124;2023-07-22T02:41:03;118349.16;;;-140.64;100.00
7930;BME280;4010;42.698;23.124;2023-07-22T02:43:30;118349.16;;;-140.64;100.00
7930;BME280;4010;42.698;23.124;2023-07-22T02:45:56;118349.16;;;-140.64;100.00
7930;BME280;4010;42.698;23.124;2023-07-22T02:48:23;118349.16;;;-140.64;100.00
7930;BME280;4010;42.698;23.124;2023-07-22T02:50:51;118349.16;;;-140.64;100.00
7930;BME280;4010;42.698;23.124;2023-07-22T02:53:18;118349.16;;;-140.64;100.00
7930;BME280;4010;42.698;23.124;2023-07-22T02:55:45;118349.16;;;-140.64;100.00
7930;BME280;4010;42.698;23.124;2023-07-22T02:58:12;118349.16;;;-140.64;100.00
7930;BME280;4010;42.698;23.124;2023-07-22T03:00:39;118349.16;;;-140.64;100.00
7930;BME280;4010;42.698;23.124;2023-07-22T03:03:06;118349.16;;;-140.64;100.00
7930;BME280;4010;42.698;23.124;2023-07-22T03:05:33;118349.16;;;-140.64;100.00
7930;BME280;4010;42.698;23.124;2023-07-22T03:08:01;118349.16;;;-140.64;100.00
7930;BME280;4010;42.698;23.124;2023-07-22T03:10:28;118349.16;;;-140.64;100.00
7930;BME280;4010;42.698;23.124;2023-07-22T03:12:55;118349.16;;;-140.64;100.00
7930;BME280;4010;42.698;23.124;2023-07-22T03:15:22;118349.16;;;-140.64;100.00
7930;BME280;4010;42.698;23.124;2023-07-22T03:17:51;118349.16;;;-140.64;100.00
7930;BME280;4010;42.698;23.124;2023-07-22T03:20:18;118349.16;;;-140.64;100.00
7930;BME280;4010;42.698;23.124;2023-07-22T03:22:45;118349.16;;;-140.64;100.00
7930;BME280;4010;42.698;23.124;2023-07-22T03:25:14;118349.16;;;-140.64;100.00
7930;BME280;4010;42.698;23.124;2023-07-22T03:27:42;118349.16;;;-140.64;100.00
7930;BME280;4010;42.698;23.124;2023-07-22T03:30:11;118349.16;;;-140.64;100.00
7930;BME280;4010;42.698;23.124;2023-07-22T03:32:40;118349.16;;;-140.64;100.00
7930;BME280;4010;42.698;23.124;2023-07-22T03:35:07;118349.16;;;-140.64;100.00
7930;BME280;4010;42.698;23.124;2023-07-22T03:37:35;118349.16;;;-140.64;100.00
7930;BME280;4010;42.698;23.124;2023-07-22T03:40:02;118349.16;;;-140.64;100.00
7930;BME280;4010;42.698;23.124;2023-07-22T03:42:31;118349.16;;;-140.64;100.00
7930;BME280;4010;42.698;23.124;2023-07-22T03:45:00;118349.16;;;-140.64;100.00
7930;BME280;4010;42.698;23.124;2023-07-22T03:47:26;118349.16;;;-140.64;97.39
7930;BME280;4010;42.698;23.124;2023-07-22T03:49:55;118349.16;;;-140.64;93.76
7930;BME280;4010;42.698;23.124;2023-07-22T03:52:23;118349.16;;;-140.64;89.40
7930;BME280;4010;42.698;23.124;2023-07-22T03:54:49;118349.16;;;-140.64;85.65
7930;BME280;4010;42.698;23.124;2023-07-22T03:57:16;118349.16;;;-140.64;80.99
7930;BME280;4010;42.698;23.124;2023-07-22T03:59:44;118349.16;;;-140.64;78.97
7930;BME280;4010;42.698;23.124;2023-07-22T04:02:11;118349.16;;;-140.64;76.47
7930;BME280;4010;42.698;23.124;2023-07-22T04:04:37;118349.16;;;-140.64;72.24
7930;BME280;4010;42.698;23.124;2023-07-22T04:07:04;118349.16;;;-140.64;70.58
7930;BME280;4010;42.698;23.124;2023-07-22T04:09:32;118349.16;;;-140.64;67.93
7930;BME280;4010;42.698;23.124;2023-07-22T04:11:59;118349.16;;;-140.64;66.33
7930;BME280;4010;42.698;23.124;2023-07-22T04:14:26;118349.16;;;-140.64;62.57
7930;BME280;4010;42.698;23.124;2023-07-22T04:16:54;118349.16;;;-140.64;64.58
7930;BME280;4010;42.698;23.124;2023-07-22T04:19:20;118349.16;;;-140.64;63.63
7930;BME280;4010;42.698;23.124;2023-07-22T04:21:47;118349.16;;;-140.64;59.84
7930;BME280;4010;42.698;23.124;2023-07-22T04:24:14;118349.16;;;-140.64;55.61
7930;BME280;4010;42.698;23.124;2023-07-22T04:26:42;118349.16;;;-140.64;54.42
7930;BME280;4010;42.698;23.124;2023-07-22T04:29:09;118349.16;;;-140.64;54.23
7930;BME280;4010;42.698;23.124;2023-07-22T04:31:37;118349.16;;;-140.64;51.67
7930;BME280;4010;42.698;23.124;2023-07-22T04:36:31;118349.16;;;-140.64;49.10
7930;BME280;4010;42.698;23.124;2023-07-22T04:38:58;118349.16;;;-140.64;49.08
7930;BME280;4010;42.698;23.124;2023-07-22T04:41:25;118349.16;;;-140.64;48.02
7930;BME280;4010;42.698;23.124;2023-07-22T04:43:51;118349.16;;;-140.64;47.79
7930;BME280;4010;42.698;23.124;2023-07-22T04:46:18;118349.16;;;-140.64;45.07
7930;BME280;4010;42.698;23.124;2023-07-22T04:48:46;118349.16;;;-140.64;48.08
7930;BME280;4010;42.698;23.124;2023-07-22T04:51:13;118349.16;;;-140.64;46.32
7930;BME280;4010;42.698;23.124;2023-07-22T04:53:40;118349.16;;;-140.64;44.95
7930;BME280;4010;42.698;23.124;2023-07-22T04:56:07;118349.16;;;-140.64;42.62
7930;BME280;4010;42.698;23.124;2023-07-22T04:58:34;118349.16;;;-140.64;41.25
7930;BME280;4010;42.698;23.124;2023-07-22T05:01:00;118349.16;;;-140.64;41.16
7930;BME280;4010;42.698;23.124;2023-07-22T05:03:27;118349.16;;;-140.64;40.64
7930;BME280;4010;42.698;23.124;2023-07-22T05:05:54;118349.16;;;-140.64;42.09
7930;BME280;4010;42.698;23.124;2023-07-22T05:08:20;118349.16;;;-140.64;41.02
7930;BME280;4010;42.698;23.124;2023-07-22T05:10:48;118349.16;;;-140.64;44.65
7930;BME280;4010;42.698;23.124;2023-07-22T05:13:15;118349.16;;;-140.64;45.44
7930;BME280;4010;42.698;23.124;2023-07-22T05:15:42;118349.16;;;-140.64;46.56
7930;BME280;4010;42.698;23.124;2023-07-22T05:18:11;118349.16;;;-140.64;43.36
7930;BME280;4010;42.698;23.124;2023-07-22T05:20:37;118349.16;;;-140.64;37.87
7930;BME280;4010;42.698;23.124;2023-07-22T05:23:04;118349.16;;;-140.64;40.46
7930;BME280;4010;42.698;23.124;2023-07-22T05:25:31;118349.16;;;-140.64;37.22
7930;BME280;4010;42.698;23.124;2023-07-22T05:27:59;118349.16;;;-140.64;37.63
7930;BME280;4010;42.698;23.124;2023-07-22T05:30:26;118349.16;;;-140.64;38.82
7930;BME280;4010;42.698;23.124;2023-07-22T05:32:52;118349.16;;;-140.64;40.02
7930;BME280;4010;42.698;23.124;2023-07-22T05:35:19;118349.16;;;-140.64;40.69
7930;BME280;4010;42.698;23.124;2023-07-22T05:37:46;118349.16;;;-140.64;40.98
7930;BME280;4010;42.698;23.124;2023-07-22T05:40:13;118349.16;;;-140.64;41.19
7930;BME280;4010;42.698;23.124;2023-07-22T05:42:40;118349.16;;;-140.64;40.93
7930;BME280;4010;42.698;23.124;2023-07-22T05:45:09;118349.16;;;-140.64;40.21
7930;BME280;4010;42.698;23.124;2023-07-22T05:47:39;118349.16;;;-140.64;37.93
7930;BME280;4010;42.698;23.124;2023-07-22T05:50:06;118349.16;;;-140.64;36.33
7930;BME280;4010;42.698;23.124;2023-07-22T05:52:33;118349.16;;;-140.64;36.12
7930;BME280;4010;42.698;23.124;2023-07-22T05:55:00;118349.16;;;-140.64;35.20
7930;BME280;4010;42.698;23.124;2023-07-22T05:57:26;118349.16;;;-140.64;36.70
7930;BME280;4010;42.698;23.124;2023-07-22T05:59:53;118349.16;;;-140.64;35.37
7930;BME280;4010;42.698;23.124;2023-07-22T06:02:21;118349.16;;;-140.64;36.36
7930;BME280;4010;42.698;23.124;2023-07-22T06:04:48;118349.16;;;-140.64;36.64
7930;BME280;4010;42.698;23.124;2023-07-22T06:07:14;118349.16;;;-140.64;37.87
7930;BME280;4010;42.698;23.124;2023-07-22T06:09:41;118349.16;;;-140.64;38.78
7930;BME280;4010;42.698;23.124;2023-07-22T06:12:08;118349.16;;;-140.64;40.60
7930;BME280;4010;42.698;23.124;2023-07-22T06:14:34;118349.16;;;-140.64;38.59
7930;BME280;4010;42.698;23.124;2023-07-22T06:17:01;118349.16;;;-140.64;41.20
7930;BME280;4010;42.698;23.124;2023-07-22T06:19:30;118349.16;;;-140.64;40.82
7930;BME280;4010;42.698;23.124;2023-07-22T06:21:57;118349.16;;;-140.64;43.05
7930;BME280;4010;42.698;23.124;2023-07-22T06:24:23;118349.16;;;-140.64;45.14
7930;BME280;4010;42.698;23.124;2023-07-22T06:26:49;118349.16;;;-140.64;42.95
7930;BME280;4010;42.698;23.124;2023-07-22T06:29:16;118349.16;;;-140.64;39.93
7930;BME280;4010;42.698;23.124;2023-07-22T06:31:42;118349.16;;;-140.64;39.81
7930;BME280;4010;42.698;23.124;2023-07-22T06:34:09;118349.16;;;-140.64;38.42
7930;BME280;4010;42.698;23.124;2023-07-22T06:36:37;118349.16;;;-140.64;39.93
7930;BME280;4010;42.698;23.124;2023-07-22T06:39:04;118349.16;;;-140.64;41.10
7930;BME280;4010;42.698;23.124;2023-07-22T06:41:30;118349.16;;;-140.64;42.96
7930;BME280;4010;42.698;23.124;2023-07-22T06:43:57;118349.16;;;-140.64;42.34
7930;BME280;4010;42.698;23.124;2023-07-22T06:46:23;118349.16;;;-140.64;45.22
7930;BME280;4010;42.698;23.124;2023-07-22T06:48:50;118349.16;;;-140.64;42.65
7930;BME280;4010;42.698;23.124;2023-07-22T06:51:17;118349.16;;;-140.64;40.42
7930;BME280;4010;42.698;23.124;2023-07-22T06:53:45;118349.16;;;-140.64;42.06
7930;BME280;4010;42.698;23.124;2023-07-22T06:56:12;118349.16;;;-140.64;41.93
7930;BME280;4010;42.698;23.124;2023-07-22T06:58:38;118349.16;;;-140.64;44.32
7930;BME280;4010;42.698;23.124;2023-07-22T07:03:30;118349.16;;;-140.64;41.91
7930;BME280;4010;42.698;23.124;2023-07-22T07:05:59;118349.16;;;-140.64;40.11
7930;BME280;4010;42.698;23.124;2023-07-22T07:08:27;118349.16;;;-140.64;40.56
7930;BME280;4010;42.698;23.124;2023-07-22T07:10:55;118349.16;;;-140.64;40.28
7930;BME280;4010;42.698;23.124;2023-07-22T07:13:21;118349.16;;;-140.64;41.95
7930;BME280;4010;42.698;23.124;2023-07-22T07:15:48;118349.16;;;-140.64;43.67
7930;BME280;4010;42.698;23.124;2023-07-22T07:18:17;118349.16;;;-140.64;44.02
7930;BME280;4010;42.698;23.124;2023-07-22T07:20:49;118349.16;;;-140.64;46.22
7930;BME280;4010;42.698;23.124;2023-07-22T07:23:16;118349.16;;;-140.64;49.44
7930;BME280;4010;42.698;23.124;2023-07-22T07:25:43;118349.16;;;-140.64;53.50
7930;BME280;4010;42.698;23.124;2023-07-22T07:28:11;118349.16;;;-140.64;51.31
7930;BME280;4010;42.698;23.124;2023-07-22T07:30:39;118349.16;;;-140.64;52.34
7930;BME280;4010;42.698;23.124;2023-07-22T07:33:06;118349.16;;;-140.64;49.51
7930;BME280;4010;42.698;23.124;2023-07-22T07:35:35;118349.16;;;-140.64;52.75
7930;BME280;4010;42.698;23.124;2023-07-22T07:38:02;118349.16;;;-140.64;54.76
7930;BME280;4010;42.698;23.124;2023-07-22T07:40:29;118349.16;;;-140.64;52.63
7930;BME280;4010;42.698;23.124;2023-07-22T07:42:57;118349.16;;;-140.64;51.40
7930;BME280;4010;42.698;23.124;2023-07-22T07:45:25;118349.16;;;-140.64;53.01
7930;BME280;4010;42.698;23.124;2023-07-22T07:47:52;118349.16;;;-140.64;53.31
7930;BME280;4010;42.698;23.124;2023-07-22T07:50:18;118349.16;;;-140.64;52.82
7930;BME280;4010;42.698;23.124;2023-07-22T07:52:45;118349.16;;;-140.64;54.76
7930;BME280;4010;42.698;23.124;2023-07-22T07:55:12;118349.16;;;-140.64;51.31
7930;BME280;4010;42.698;23.124;2023-07-22T07:57:38;118349.16;;;-140.64;53.14
7930;BME280;4010;42.698;23.124;2023-07-22T08:00:05;118349.16;;;-140.64;54.81
7930;BME280;4010;42.698;23.124;2023-07-22T08:02:35;118349.16;;;-140.64;59.20
7930;BME280;4010;42.698;23.124;2023-07-22T08:05:02;118349.16;;;-140.64;55.13
7930;BME280;4010;42.698;23.124;2023-07-22T08:07:29;118349.16;;;-140.64;53.26
7930;BME280;4010;42.698;23.124;2023-07-22T08:09:56;118349.16;;;-140.64;52.64
7930;BME280;4010;42.698;23.124;2023-07-22T08:12:23;118349.16;;;-140.64;51.12
7930;BME280;4010;42.698;23.124;2023-07-22T08:14:52;118349.16;;;-140.64;52.68
7930;BME280;4010;42.698;23.124;2023-07-22T08:17:18;118349.16;;;-140.64;54.01
7930;BME280;4010;42.698;23.124;2023-07-22T08:19:46;118349.16;;;-140.64;53.67
7930;BME280;4010;42.698;23.124;2023-07-22T08:22:14;118349.16;;;-140.64;54.17
7930;BME280;4010;42.698;23.124;2023-07-22T08:24:41;118349.16;;;-140.64;55.76
7930;BME280;4010;42.698;23.124;2023-07-22T08:27:10;118349.16;;;-140.64;55.68
7930;BME280;4010;42.698;23.124;2023-07-22T08:29:36;118349.16;;;-140.64;53.52
7930;BME280;4010;42.698;23.124;2023-07-22T08:32:04;118349.16;;;-140.64;59.90
7930;BME280;4010;42.698;23.124;2023-07-22T08:34:30;118349.16;;;-140.64;55.14
7930;BME280;4010;42.698;23.124;2023-07-22T08:36:58;118349.16;;;-140.64;53.36
7930;BME280;4010;42.698;23.124;2023-07-22T08:39:25;118349.16;;;-140.64;54.52
7930;BME280;4010;42.698;23.124;2023-07-22T08:41:52;118349.16;;;-140.64;54.79
7930;BME280;4010;42.698;23.124;2023-07-22T08:44:21;118349.16;;;-140.64;55.62
7930;BME280;4010;42.698;23.124;2023-07-22T08:46:53;118349.16;;;-140.64;49.22
7930;BME280;4010;42.698;23.124;2023-07-22T08:49:22;118349.16;;;-140.64;50.30
7930;BME280;4010;42.698;23.124;2023-07-22T08:51:49;118349.16;;;-140.64;53.26
7930;BME280;4010;42.698;23.124;2023-07-22T08:54:18;118349.16;;;-140.64;50.36
7930;BME280;4010;42.698;23.124;2023-07-22T08:56:45;118349.16;;;-140.64;49.69
7930;BME280;4010;42.698;23.124;2023-07-22T08:59:12;118349.16;;;-140.64;47.98
7930;BME280;4010;42.698;23.124;2023-07-22T09:01:40;118349.16;;;-140.64;44.67
7930;BME280;4010;42.698;23.124;2023-07-22T09:04:08;118349.16;;;-140.64;46.34
7930;BME280;4010;42.698;23.124;2023-07-22T09:06:35;118349.16;;;-140.64;44.55
7930;BME280;4010;42.698;23.124;2023-07-22T09:09:02;118349.16;;;-140.64;43.07
7930;BME280;4010;42.698;23.124;2023-07-22T09:11:32;118349.16;;;-140.64;44.99
7930;BME280;4010;42.698;23.124;2023-07-22T09:14:00;118349.16;;;-140.64;41.47
7930;BME280;4010;42.698;23.124;2023-07-22T09:16:28;118349.16;;;-140.64;44.44
7930;BME280;4010;42.698;23.124;2023-07-22T09:18:58;118349.16;;;-140.64;43.28
7930;BME280;4010;42.698;23.124;2023-07-22T09:21:27;118349.16;;;-140.64;41.60
7930;BME280;4010;42.698;23.124;2023-07-22T09:23:54;118349.16;;;-140.64;41.98
7930;BME280;4010;42.698;23.124;2023-07-22T09:26:21;118349.16;;;-140.64;44.19
7930;BME280;4010;42.698;23.124;2023-07-22T09:28:50;118349.16;;;-140.64;41.29
7930;BME280;4010;42.698;23.124;2023-07-22T09:31:25;118349.16;;;-140.64;42.36
7930;BME280;4010;42.698;23.124;2023-07-22T09:33:53;118349.16;;;-140.64;38.51
7930;BME280;4010;42.698;23.124;2023-07-22T09:36:20;118349.16;;;-140.64;40.96
7930;BME280;4010;42.698;23.124;2023-07-22T09:38:59;118349.16;;;-140.64;41.08
7930;BME280;4010;42.698;23.124;2023-07-22T09:41:27;118349.16;;;-140.64;37.01
7930;BME280;4010;42.698;23.124;2023-07-22T09:43:55;118349.16;;;-140.64;39.70
7930;BME280;4010;42.698;23.124;2023-07-22T09:46:31;118349.16;;;-140.64;38.20
7930;BME280;4010;42.698;23.124;2023-07-22T09:49:02;118349.16;;;-140.64;38.01
7930;BME280;4010;42.698;23.124;2023-07-22T09:51:33;118349.16;;;-140.64;38.28
7930;BME280;4010;42.698;23.124;2023-07-22T09:54:02;118349.16;;;-140.64;38.25
7930;BME280;4010;42.698;23.124;2023-07-22T09:56:29;118349.16;;;-140.64;37.58
7930;BME280;4010;42.698;23.124;2023-07-22T09:58:58;118349.16;;;-140.64;37.34
7930;BME280;4010;42.698;23.124;2023-07-22T10:01:25;118349.16;;;-140.64;36.41
7930;BME280;4010;42.698;23.124;2023-07-22T10:03:54;118349.16;;;-140.64;35.42
7930;BME280;4010;42.698;23.124;2023-07-22T10:06:22;118349.16;;;-140.64;37.49
7930;BME280;4010;42.698;23.124;2023-07-22T10:08:50;118349.16;;;-140.64;35.55
7930;BME280;4010;42.698;23.124;2023-07-22T10:11:18;118349.16;;;-140.64;34.17
7930;BME280;4010;42.698;23.124;2023-07-22T10:13:45;118349.16;;;-140.64;36.79
7930;BME280;4010;42.698;23.124;2023-07-22T10:16:13;118349.16;;;-140.64;36.55
7930;BME280;4010;42.698;23.124;2023-07-22T10:18:40;118349.16;;;-140.64;36.49
7930;BME280;4010;42.698;23.124;2023-07-22T10:21:10;118349.16;;;-140.64;38.57
7930;BME280;4010;42.698;23.124;2023-07-22T10:23:38;118349.16;;;-140.64;34.04
7930;BME280;4010;42.698;23.124;2023-07-22T10:26:06;118349.16;;;-140.64;34.86
7930;BME280;4010;42.698;23.124;2023-07-22T10:28:33;118349.16;;;-140.64;36.81
7930;BME280;4010;42.698;23.124;2023-07-22T10:31:00;118349.16;;;-140.64;34.65
7930;BME280;4010;42.698;23.124;2023-07-22T10:33:29;118349.16;;;-140.64;33.96
7930;BME280;4010;42.698;23.124;2023-07-22T10:36:04;118349.16;;;-140.64;34.90
7930;BME280;4010;42.698;23.124;2023-07-22T10:38:30;118349.16;;;-140.64;33.61
7930;BME280;4010;42.698;23.124;2023-07-22T10:40:57;118349.16;;;-140.64;33.67
7930;BME280;4010;42.698;23.124;2023-07-22T10:43:27;118349.16;;;-140.64;34.53
7930;BME280;4010;42.698;23.124;2023-07-22T10:45:57;118349.16;;;-140.64;33.27
7930;BME280;4010;42.698;23.124;2023-07-22T10:48:26;118349.16;;;-140.64;34.03
7930;BME280;4010;42.698;23.124;2023-07-22T10:51:05;118349.16;;;-140.64;35.41
7930;BME280;4010;42.698;23.124;2023-07-22T10:53:32;118349.16;;;-140.64;33.98
7930;BME280;4010;42.698;23.124;2023-07-22T10:58:30;118349.16;;;-140.64;33.09
7930;BME280;4010;42.698;23.124;2023-07-22T11:06:30;118349.16;;;-140.64;33.64
7930;BME280;4010;42.698;23.124;2023-07-22T11:08:59;118349.16;;;-140.64;34.35
7930;BME280;4010;42.698;23.124;2023-07-22T11:11:35;118349.16;;;-140.64;34.07
7930;BME280;4010;42.698;23.124;2023-07-22T11:16:30;118349.16;;;-140.64;33.58
7930;BME280;4010;42.698;23.124;2023-07-22T11:18:58;118349.16;;;-140.64;33.16
7930;BME280;4010;42.698;23.124;2023-07-22T11:21:25;118349.16;;;-140.64;32.63
7930;BME280;4010;42.698;23.124;2023-07-22T11:23:53;118349.16;;;-140.64;33.67
7930;BME280;4010;42.698;23.124;2023-07-22T11:26:21;118349.16;;;-140.64;33.29
7930;BME280;4010;42.698;23.124;2023-07-22T11:28:48;118349.16;;;-140.64;32.58
7930;BME280;4010;42.698;23.124;2023-07-22T11:31:14;118349.16;;;-140.64;33.42
7930;BME280;4010;42.698;23.124;2023-07-22T11:33:41;118349.16;;;-140.64;33.53
7930;BME280;4010;42.698;23.124;2023-07-22T11:36:11;118349.16;;;-140.64;33.07
7930;BME280;4010;42.698;23.124;2023-07-22T11:38:38;118349.16;;;-140.64;33.93
7930;BME280;4010;42.698;23.124;2023-07-22T11:43:32;118349.16;;;-140.64;31.91
7930;BME280;4010;42.698;23.124;2023-07-22T11:45:58;118349.16;;;-140.64;32.86
7930;BME280;4010;42.698;23.124;2023-07-22T11:48:25;118349.16;;;-140.64;32.01
7930;BME280;4010;42.698;23.124;2023-07-22T11:50:52;118349.16;;;-140.64;33.86
7930;BME280;4010;42.698;23.124;2023-07-22T11:53:18;118349.16;;;-140.64;33.31
7930;BME280;4010;42.698;23.124;2023-07-22T11:55:45;118349.16;;;-140.64;33.05
7930;BME280;4010;42.698;23.124;2023-07-22T11:58:12;118349.16;;;-140.64;32.16
7930;BME280;4010;42.698;23.124;2023-07-22T12:00:43;118349.16;;;-140.64;31.15
7930;BME280;4010;42.698;23.124;2023-07-22T12:03:10;118349.16;;;-140.64;33.02
7930;BME280;4010;42.698;23.124;2023-07-22T12:05:36;118349.16;;;-140.64;33.36
7930;BME280;4010;42.698;23.124;2023-07-22T12:08:04;118349.16;;;-140.64;32.85
7930;BME280;4010;42.698;23.124;2023-07-22T12:10:30;118349.16;;;-140.64;33.36
7930;BME280;4010;42.698;23.124;2023-07-22T12:13:00;118349.16;;;-140.64;35.92
7930;BME280;4010;42.698;23.124;2023-07-22T12:15:27;118349.16;;;-140.64;33.98
7930;BME280;4010;42.698;23.124;2023-07-22T12:17:59;118349.16;;;-140.64;31.79
7930;BME280;4010;42.698;23.124;2023-07-22T12:20:26;118349.16;;;-140.64;33.75
7930;BME280;4010;42.698;23.124;2023-07-22T12:22:54;118349.16;;;-140.64;34.06
7930;BME280;4010;42.698;23.124;2023-07-22T12:25:21;118349.16;;;-140.64;34.82
7930;BME280;4010;42.698;23.124;2023-07-22T12:27:48;118349.16;;;-140.64;34.42
7930;BME280;4010;42.698;23.124;2023-07-22T12:30:15;118349.16;;;-140.64;39.92
7930;BME280;4010;42.698;23.124;2023-07-22T12:32:42;118349.16;;;-140.64;35.42
7930;BME280;4010;42.698;23.124;2023-07-22T12:35:10;118349.16;;;-140.64;34.66
7930;BME280;4010;42.698;23.124;2023-07-22T12:37:39;118349.16;;;-140.64;37.50
7930;BME280;4010;42.698;23.124;2023-07-22T12:40:06;118349.16;;;-140.64;35.11
7930;BME280;4010;42.698;23.124;2023-07-22T12:42:33;118349.16;;;-140.64;32.59
7930;BME280;4010;42.698;23.124;2023-07-22T12:45:00;118349.16;;;-140.64;34.35
7930;BME280;4010;42.698;23.124;2023-07-22T12:47:27;118349.16;;;-140.64;35.29
7930;BME280;4010;42.698;23.124;2023-07-22T12:49:53;118349.16;;;-140.64;32.81
7930;BME280;4010;42.698;23.124;2023-07-22T12:52:21;118349.16;;;-140.64;34.03
7930;BME280;4010;42.698;23.124;2023-07-22T12:54:48;118349.16;;;-140.64;32.19
7930;BME280;4010;42.698;23.124;2023-07-22T12:57:14;118349.16;;;-140.64;33.77